Time;durP1;ratioP1;P1;durP2;ratioP2;P2;SDS_P1;SDS_P2;PMS_P1;PMS_P2;Temp;Humidity;BMP_temperature;BMP_pressure;BME280_temperature;BME280_humidity;BME280_pressure;Samples;Min_cycle;Max_cycle;Signal;HPM_P1;HPM_P2
2022/12/18 00:04:27;;;;;;;9.40;5.15;;;;;;;20.96;35.32;102657.66;16213357;19;129365;-59
2022/12/18 00:09:49;;;;;;;8.52;5.43;;;;;;;20.74;35.96;102649.56;16217002;19;128037;-59
2022/12/18 00:15:10;;;;;;;9.43;5.10;;;;;;;20.54;35.98;102638.50;16211899;19;128313;-59
2022/12/18 00:20:37;;;;;;;7.28;4.38;;;;;;;20.40;36.37;102637.69;16216463;19;128580;-59
2022/12/18 00:26:04;;;;;;;7.82;4.53;;;;;;;20.22;36.61;102633.63;16216602;19;133300;-59
2022/12/18 00:31:26;;;;;;;8.90;5.13;;;;;;;20.07;36.61;102624.66;16216775;19;129777;-57
2022/12/18 00:36:48;;;;;;;7.65;4.70;;;;;;;19.91;36.10;102617.59;16211552;19;128728;-58
2022/12/18 00:47:58;;;;;;;8.30;5.22;;;;;;;19.58;35.95;102604.56;16214010;19;130228;-58
2022/12/18 00:53:20;;;;;;;9.50;5.65;;;;;;;19.48;36.12;102607.75;16214370;19;129839;-59
2022/12/18 00:58:42;;;;;;;8.48;5.70;;;;;;;19.35;35.91;102603.88;16216198;19;128288;-59
2022/12/18 01:04:04;;;;;;;8.23;6.05;;;;;;;19.25;36.04;102603.44;16214599;19;129151;-59
2022/12/18 01:09:26;;;;;;;28.05;8.40;;;;;;;19.16;35.40;102619.38;16215430;19;128129;-59
2022/12/18 01:14:47;;;;;;;10.75;8.00;;;;;;;19.02;35.16;102624.03;16213388;19;128205;-59
2022/12/18 01:20:11;;;;;;;11.45;8.00;;;;;;;18.91;35.05;102624.63;16213476;19;129448;-60
2022/12/18 01:25:35;;;;;;;16.90;8.23;;;;;;;18.83;35.07;102622.06;16212439;19;128463;-58
2022/12/18 01:30:57;;;;;;;10.38;7.13;;;;;;;18.76;35.04;102614.53;16216907;19;128396;-58
2022/12/18 01:36:29;;;;;;;8.73;6.85;;;;;;;18.68;35.13;102609.19;16213524;19;129347;-59
2022/12/18 01:42:03;;;;;;;8.90;6.50;;;;;;;18.61;35.10;102605.50;16209073;19;128352;-59
2022/12/18 01:47:30;;;;;;;9.80;6.63;;;;;;;18.56;35.25;102616.38;16207907;19;130314;-58
2022/12/18 01:52:55;;;;;;;10.50;7.03;;;;;;;18.49;35.10;102621.00;16211363;19;129170;-59
2022/12/18 01:58:19;;;;;;;8.88;6.32;;;;;;;18.42;35.34;102626.50;16211243;19;130625;-58
2022/12/18 02:03:44;;;;;;;8.15;6.03;;;;;;;18.35;35.38;102620.03;16209553;19;129202;-59
2022/12/18 02:09:18;;;;;;;8.02;5.95;;;;;;;18.30;35.11;102627.03;16206480;19;128400;-58
2022/12/18 02:14:51;;;;;;;7.30;5.78;;;;;;;18.23;34.89;102617.84;16127720;19;129664;-58
2022/12/18 02:20:35;;;;;;;7.82;5.82;;;;;;;18.18;35.32;102613.97;16125500;19;129594;-58
2022/12/18 02:25:57;;;;;;;8.73;5.90;;;;;;;18.11;35.03;102603.66;16128996;19;129837;-58
2022/12/18 02:31:27;;;;;;;7.60;5.65;;;;;;;18.08;35.17;102587.47;16124219;19;129629;-58
2022/12/18 02:36:51;;;;;;;7.13;5.18;;;;;;;18.03;35.19;102570.59;16126441;19;128939;-58
2022/12/18 02:42:13;;;;;;;6.88;5.28;;;;;;;17.97;35.13;102563.97;16145465;19;129567;-58
2022/12/18 02:47:38;;;;;;;8.10;5.65;;;;;;;17.94;34.79;102574.59;16142750;19;129534;-58
2022/12/18 02:53:14;;;;;;;7.50;5.28;;;;;;;17.87;34.94;102557.06;16140256;19;129499;-58
2022/12/18 02:58:54;;;;;;;7.32;5.15;;;;;;;17.82;34.96;102550.22;16140147;19;129191;-58
2022/12/18 03:05:09;;;;;;;6.07;4.72;;;;;;;17.78;35.24;102553.59;16139260;19;129394;-58
2022/12/18 03:10:35;;;;;;;7.95;5.28;;;;;;;17.74;35.26;102575.25;16136397;19;130967;-58
2022/12/18 03:15:59;;;;;;;6.15;4.72;;;;;;;17.70;35.11;102568.44;16138860;19;129505;-59
2022/12/18 03:21:27;;;;;;;5.68;4.70;;;;;;;17.67;34.95;102557.75;16136084;19;129536;-57
2022/12/18 03:26:54;;;;;;;7.15;4.80;;;;;;;17.66;35.22;102553.28;16137085;19;129430;-59
2022/12/18 03:32:44;;;;;;;5.70;4.90;;;;;;;17.62;34.92;102541.75;16138239;19;129465;-58
2022/12/18 03:38:07;;;;;;;7.03;4.63;;;;;;;17.56;34.70;102533.41;16138150;19;130605;-58
2022/12/18 03:43:56;;;;;;;6.57;4.50;;;;;;;17.51;34.95;102526.50;16134555;19;129923;-58
2022/12/18 03:49:59;;;;;;;6.22;4.40;;;;;;;17.48;34.73;102532.44;16132683;19;130609;-58
2022/12/18 03:55:24;;;;;;;5.93;4.55;;;;;;;17.44;34.66;102541.34;16135489;19;129577;-58
2022/12/18 04:00:49;;;;;;;6.67;4.40;;;;;;;17.42;34.84;102549.84;16136064;19;130037;-55
2022/12/18 04:06:12;;;;;;;5.18;4.35;;;;;;;17.38;34.72;102552.16;16135746;19;129417;-58
2022/12/18 04:11:34;;;;;;;5.28;3.92;;;;;;;17.37;34.55;102546.81;16135727;19;133055;-58
2022/12/18 04:16:55;;;;;;;6.18;4.40;;;;;;;17.34;34.96;102558.28;16135467;19;130213;-58
2022/12/18 04:22:17;;;;;;;4.93;3.53;;;;;;;17.32;34.55;102555.69;16133866;19;129166;-59
2022/12/18 04:27:39;;;;;;;6.00;4.53;;;;;;;17.30;34.95;102540.38;16134019;19;129971;-59
2022/12/18 04:33:01;;;;;;;6.25;4.28;;;;;;;17.24;34.61;102529.03;16129567;19;129483;-59
2022/12/18 04:38:22;;;;;;;5.40;4.00;;;;;;;17.21;34.59;102532.22;16130989;19;129459;-57
2022/12/18 04:43:44;;;;;;;5.82;3.97;;;;;;;17.19;34.68;102520.47;16131710;19;130151;-59
2022/12/18 04:49:06;;;;;;;5.28;4.05;;;;;;;17.17;34.50;102519.81;16128400;19;129294;-58
2022/12/18 04:54:27;;;;;;;6.28;4.03;;;;;;;17.16;34.29;102520.03;16129586;19;129740;-59
2022/12/18 04:59:49;;;;;;;5.97;3.97;;;;;;;17.13;34.60;102540.63;16128512;19;129407;-56
2022/12/18 05:05:11;;;;;;;4.70;3.60;;;;;;;17.10;34.29;102541.03;16128181;19;129504;-58
2022/12/18 05:10:33;;;;;;;5.38;3.45;;;;;;;17.08;34.49;102537.59;16129093;19;129432;-58
2022/12/18 05:15:58;;;;;;;5.28;3.67;;;;;;;17.05;34.45;102535.22;16133843;19;129855;-58
2022/12/18 05:21:20;;;;;;;4.95;3.72;;;;;;;17.04;34.17;102544.56;16127009;19;129041;-58
2022/12/18 05:26:42;;;;;;;4.38;3.67;;;;;;;17.01;34.38;102536.66;16128764;19;129455;-58
2022/12/18 05:32:04;;;;;;;4.07;3.10;;;;;;;16.98;34.18;102524.09;16129320;19;129712;-58
2022/12/18 05:37:25;;;;;;;3.60;3.00;;;;;;;16.96;34.41;102528.09;16128044;19;129762;-57
2022/12/18 05:42:47;;;;;;;4.72;3.53;;;;;;;16.92;34.11;102517.44;16126068;19;129438;-56
2022/12/18 05:48:11;;;;;;;3.97;3.10;;;;;;;16.91;33.96;102529.53;16125664;19;129558;-58
2022/12/18 05:53:33;;;;;;;4.43;3.25;;;;;;;16.89;34.43;102519.75;16125129;19;129703;-57
2022/12/18 05:58:55;;;;;;;4.82;3.55;;;;;;;16.87;34.40;102525.44;16124247;19;129788;-59
2022/12/18 06:04:16;;;;;;;4.75;3.35;;;;;;;16.85;34.17;102533.09;16123985;19;129643;-58
2022/12/18 06:09:38;;;;;;;3.92;2.75;;;;;;;16.83;34.35;102535.19;16127801;19;129618;-57
2022/12/18 06:15:00;;;;;;;5.43;3.33;;;;;;;16.82;34.03;102527.09;16136940;19;129498;-58
2022/12/18 06:20:22;;;;;;;3.80;3.17;;;;;;;16.78;33.96;102529.38;16139821;19;129727;-59
2022/12/18 06:25:46;;;;;;;3.50;2.50;;;;;;;16.77;33.90;102524.91;16141069;19;129184;-58
2022/12/18 06:31:09;;;;;;;4.57;3.10;;;;;;;16.74;33.87;102519.75;16138839;19;129476;-59
2022/12/18 06:36:30;;;;;;;4.05;2.50;;;;;;;16.74;33.93;102519.75;16137897;19;130519;-59
2022/12/18 06:41:52;;;;;;;2.50;2.10;;;;;;;16.90;33.78;102514.00;16140036;19;129846;-60
2022/12/18 06:47:14;;;;;;;3.83;2.65;;;;;;;17.47;33.73;102507.75;16139156;19;130685;-62
2022/12/18 06:52:36;;;;;;;2.45;1.77;;;;;;;18.20;32.80;102498.28;16137959;19;129459;-62
2022/12/18 06:57:58;;;;;;;2.60;1.90;;;;;;;18.82;32.49;102479.75;16136535;19;130182;-57
2022/12/18 07:03:20;;;;;;;2.72;2.20;;;;;;;19.42;31.88;102469.84;16136316;19;129955;-58
2022/12/18 07:08:42;;;;;;;2.35;1.95;;;;;;;19.93;31.06;102469.13;16134401;19;129448;-55
2022/12/18 07:14:03;;;;;;;4.10;2.50;;;;;;;20.13;30.77;102460.72;16135984;19;129526;-55
2022/12/18 07:19:25;;;;;;;2.30;1.92;;;;;;;20.14;30.65;102461.59;16132584;19;129420;-56
2022/12/18 07:24:47;;;;;;;2.65;2.10;;;;;;;20.01;30.67;102443.03;16133244;19;129466;-58
2022/12/18 07:30:09;;;;;;;2.72;2.20;;;;;;;19.82;30.98;102436.44;16133745;19;130344;-57
2022/12/18 07:35:33;;;;;;;3.05;2.00;;;;;;;19.60;31.43;102438.63;16133139;19;129226;-59
2022/12/18 07:40:59;;;;;;;3.50;2.20;;;;;;;19.37;31.44;102426.91;16135338;19;129236;-57
2022/12/18 07:46:22;;;;;;;5.07;2.22;;;;;;;19.17;31.68;102426.03;16133410;19;130233;-57
2022/12/18 07:51:48;;;;;;;3.08;2.10;;;;;;;18.99;31.61;102430.28;16134793;19;129512;-57
2022/12/18 07:57:10;;;;;;;3.03;2.20;;;;;;;18.82;31.95;102437.34;16132133;19;129608;-58
2022/12/18 08:02:53;;;;;;;2.35;1.90;;;;;;;18.66;32.06;102422.78;16131992;19;129927;-57
2022/12/18 08:08:15;;;;;;;3.53;2.05;;;;;;;18.55;32.29;102426.19;16131133;19;129661;-56
2022/12/18 08:13:36;;;;;;;3.03;1.88;;;;;;;18.55;32.02;102412.31;16133846;19;130014;-56
2022/12/18 08:18:59;;;;;;;1.95;1.45;;;;;;;18.64;32.07;102422.16;16130922;19;133522;-58
2022/12/18 08:24:20;;;;;;;2.75;1.95;;;;;;;19.01;31.74;102430.09;16130540;19;129662;-58
2022/12/18 08:29:42;;;;;;;10.05;2.20;;;;;;;19.53;31.33;102399.78;16130001;19;129776;-56
2022/12/18 08:35:04;;;;;;;14.57;4.47;;;;;;;19.85;28.38;102408.22;16129149;19;129917;-58
2022/12/18 08:40:26;;;;;;;26.38;6.90;;;;;;;19.75;26.86;102403.16;16130067;19;129343;-59
2022/12/18 08:45:48;;;;;;;21.35;5.70;;;;;;;19.57;26.81;102401.03;16131743;19;131136;-60
2022/12/18 08:51:10;;;;;;;20.77;5.20;;;;;;;19.45;26.62;102388.88;16126453;19;129667;-59
2022/12/18 08:56:32;;;;;;;16.10;4.82;;;;;;;19.44;26.38;102401.09;16127875;19;129486;-59
2022/12/18 09:01:55;;;;;;;14.77;4.13;;;;;;;19.53;26.17;102383.97;16127312;19;134908;-60
2022/12/18 09:07:17;;;;;;;9.80;4.50;;;;;;;19.64;25.72;102376.91;16124064;19;129286;-60
2022/12/18 09:12:38;;;;;;;13.95;3.97;;;;;;;19.75;25.51;102380.06;16127746;19;129578;-59
2022/12/18 09:18:00;;;;;;;9.52;3.90;;;;;;;19.94;25.44;102372.75;16127768;19;128981;-59
2022/12/18 09:23:22;;;;;;;11.23;4.20;;;;;;;20.09;25.28;102369.72;16126493;19;129100;-60
2022/12/18 09:28:44;;;;;;;10.15;3.92;;;;;;;20.25;24.90;102371.97;16128615;19;130683;-60
2022/12/18 09:34:05;;;;;;;9.90;3.90;;;;;;;20.39;24.98;102372.75;16126416;19;129778;-59
2022/12/18 09:39:27;;;;;;;8.45;3.90;;;;;;;20.58;24.59;102370.91;16127424;19;130065;-59
2022/12/18 09:44:53;;;;;;;9.85;4.28;;;;;;;20.70;24.51;102364.63;16125781;19;130125;-59
2022/12/18 09:50:17;;;;;;;5.47;3.17;;;;;;;20.78;24.13;102357.97;16124822;19;129541;-60
2022/12/18 09:55:42;;;;;;;4.83;3.13;;;;;;;20.85;24.43;102364.34;16129068;19;130553;-60
2022/12/18 10:01:21;;;;;;;8.88;3.92;;;;;;;20.90;23.78;102354.25;16123365;19;129199;-59
2022/12/18 10:06:54;;;;;;;9.80;3.50;;;;;;;20.96;24.36;102355.25;16126484;19;129317;-55
2022/12/18 10:12:40;;;;;;;10.27;3.88;;;;;;;21.03;24.24;102353.25;16124532;19;129839;-61
2022/12/18 10:18:28;;;;;;;14.73;3.25;;;;;;;21.02;24.10;102339.59;16124665;19;129307;-61
2022/12/18 10:24:19;;;;;;;10.88;3.67;;;;;;;20.98;24.07;102332.78;16122875;19;129640;-64
2022/12/18 10:29:43;;;;;;;9.73;3.35;;;;;;;20.88;24.08;102323.00;16124265;19;129253;-60
2022/12/18 10:35:17;;;;;;;8.38;3.88;;;;;;;20.73;23.88;102303.00;16121539;19;130168;-58
2022/12/18 10:41:18;;;;;;;17.75;3.90;;;;;;;20.56;24.09;102289.66;16123800;19;129741;-61
2022/12/18 10:46:42;;;;;;;20.98;4.22;;;;;;;20.46;24.45;102286.53;16113587;19;130659;-61
2022/12/18 10:52:15;;;;;;;26.67;4.78;;;;;;;20.42;24.41;102279.75;16113071;19;129554;-61
2022/12/18 10:57:41;;;;;;;23.13;5.30;;;;;;;20.36;24.81;102269.50;16113063;19;130294;-61
2022/12/18 11:03:23;;;;;;;43.05;6.70;;;;;;;20.25;24.83;102274.72;16126252;19;129359;-61
2022/12/18 11:09:02;;;;;;;47.17;6.38;;;;;;;20.14;24.89;102273.50;16126361;19;129549;-61
2022/12/18 11:14:43;;;;;;;45.40;7.05;;;;;;;20.02;25.06;102271.69;16129568;19;131778;-61
2022/12/18 11:20:35;;;;;;;25.13;5.65;;;;;;;19.89;25.96;102278.97;16134761;19;130051;-62
2022/12/18 11:26:03;;;;;;;35.35;5.90;;;;;;;19.76;27.13;102260.44;16137930;19;134213;-63
2022/12/18 11:31:28;;;;;;;30.08;5.10;;;;;;;19.60;27.19;102266.53;16134193;19;129608;-62
2022/12/18 11:36:50;;;;;;;23.90;4.97;;;;;;;19.47;28.11;102261.88;16135406;19;130081;-62
2022/12/18 11:42:20;;;;;;;30.75;4.95;;;;;;;19.35;28.30;102251.44;16134100;19;129495;-62
2022/12/18 11:48:22;;;;;;;27.05;5.18;;;;;;;19.24;28.27;102254.91;16135409;19;130278;-62
2022/12/18 11:53:44;;;;;;;32.10;5.20;;;;;;;19.12;28.48;102249.16;16134346;19;129263;-62
2022/12/18 11:59:27;;;;;;;30.73;5.32;;;;;;;19.05;28.42;102249.19;16134270;19;129462;-62
2022/12/18 12:05:13;;;;;;;43.95;6.00;;;;;;;18.99;28.65;102236.16;16133741;19;129539;-62
2022/12/18 12:11:16;;;;;;;26.55;5.22;;;;;;;18.93;28.75;102223.19;16130972;19;130200;-62
2022/12/18 12:16:57;;;;;;;24.48;4.97;;;;;;;18.88;28.54;102198.88;16132734;19;129929;-62
2022/12/18 12:22:21;;;;;;;59.50;6.65;;;;;;;18.85;28.72;102209.53;16132370;19;133923;-62
2022/12/18 12:27:54;;;;;;;78.93;8.48;;;;;;;18.81;28.77;102208.28;16131805;19;129571;-62
2022/12/18 12:33:48;;;;;;;60.28;7.03;;;;;;;18.77;28.94;102203.16;16129196;19;129520;-63
2022/12/18 12:39:17;;;;;;;61.72;7.00;;;;;;;18.72;28.93;102194.63;16125610;19;130523;-62
2022/12/18 12:44:46;;;;;;;41.90;7.10;;;;;;;18.69;28.83;102186.75;16128949;19;129625;-61
2022/12/18 12:50:18;;;;;;;34.35;5.38;;;;;;;18.65;28.99;102182.69;16128509;19;129449;-60
2022/12/18 12:55:42;;;;;;;45.00;5.68;;;;;;;18.63;28.87;102190.38;16128754;19;129704;-62
2022/12/18 13:01:03;;;;;;;33.95;6.00;;;;;;;18.61;29.25;102182.28;16129938;19;129585;-62
2022/12/18 13:06:38;;;;;;;29.80;5.22;;;;;;;18.61;29.49;102175.88;16129027;19;129530;-62
2022/12/18 13:18:15;;;;;;;30.05;5.82;;;;;;;18.58;28.93;102159.69;16127799;19;129035;-62
2022/12/18 13:23:37;;;;;;;22.95;5.63;;;;;;;18.57;29.10;102155.22;16118188;19;130007;-62
2022/12/18 13:29:01;;;;;;;19.88;5.60;;;;;;;18.57;29.09;102130.28;16118635;19;129505;-64
2022/12/18 13:34:26;;;;;;;37.03;5.88;;;;;;;18.54;28.66;102125.16;16117585;19;131070;-63
2022/12/18 13:39:50;;;;;;;28.20;6.32;;;;;;;18.54;28.40;102126.00;16126112;19;130079;-62
2022/12/18 13:45:49;;;;;;;29.98;6.32;;;;;;;18.57;27.68;102124.72;16127509;19;130426;-63
2022/12/18 13:51:16;;;;;;;22.20;6.30;;;;;;;18.58;27.60;102130.06;16123265;19;130292;-62
2022/12/18 13:56:44;;;;;;;23.25;6.15;;;;;;;18.59;27.76;102123.44;16126727;19;129827;-62
2022/12/18 14:02:11;;;;;;;28.80;6.05;;;;;;;18.59;28.20;102125.34;16125420;19;129563;-60
2022/12/18 14:07:34;;;;;;;20.15;5.93;;;;;;;18.54;28.22;102134.31;16129163;19;129478;-56
2022/12/18 14:13:10;;;;;;;30.63;6.07;;;;;;;18.51;28.25;102137.53;16122273;19;130758;-60
2022/12/18 14:18:48;;;;;;;29.23;6.72;;;;;;;18.49;28.00;102116.63;16122493;19;129578;-57
2022/12/18 14:24:19;;;;;;;15.30;5.50;;;;;;;18.50;27.71;102132.19;16123421;19;129607;-56
2022/12/18 14:29:43;;;;;;;21.58;5.20;;;;;;;18.49;27.88;102131.34;16123025;19;129798;-57
2022/12/18 14:35:13;;;;;;;29.40;5.43;;;;;;;18.51;27.64;102136.66;16132125;19;130299;-55
2022/12/18 14:40:35;;;;;;;33.60;5.78;;;;;;;18.50;28.08;102133.06;16140938;19;129490;-53
2022/12/18 14:45:57;;;;;;;16.55;5.20;;;;;;;18.51;28.04;102111.72;16140470;19;129553;-53
2022/12/18 14:51:21;;;;;;;19.98;5.72;;;;;;;18.53;27.92;102112.38;16140596;19;129855;-55
2022/12/18 14:56:47;;;;;;;24.33;5.53;;;;;;;18.55;28.00;102107.47;16143192;19;129408;-55
2022/12/18 15:02:27;;;;;;;25.40;5.57;;;;;;;18.58;27.48;102098.72;16202969;19;128739;-57
2022/12/18 15:07:52;;;;;;;20.13;5.72;;;;;;;18.62;27.42;102097.19;16220784;19;128189;-57
2022/12/18 15:13:24;;;;;;;23.02;5.75;;;;;;;18.65;27.31;102088.47;16220486;19;128948;-58
2022/12/18 15:18:47;;;;;;;16.50;4.95;;;;;;;18.64;27.62;102092.28;16218282;19;128391;-57
2022/12/18 15:24:27;;;;;;;21.23;5.30;;;;;;;18.66;27.71;102068.00;16218309;19;127648;-53
2022/12/18 15:30:07;;;;;;;19.80;5.18;;;;;;;18.70;27.79;102074.81;16222236;19;129371;-57
2022/12/18 15:35:29;;;;;;;20.80;4.70;;;;;;;18.69;27.93;102053.69;16222289;19;129460;-53
2022/12/18 15:40:52;;;;;;;21.35;5.78;;;;;;;18.71;27.59;102054.31;16220004;19;129382;-55
2022/12/18 15:46:16;;;;;;;16.42;5.75;;;;;;;18.73;27.59;102056.88;16220824;19;129442;-56
2022/12/18 15:51:38;;;;;;;17.52;5.32;;;;;;;18.74;27.42;102058.59;16216650;19;133886;-57
2022/12/18 16:02:40;;;;;;;18.60;5.15;;;;;;;18.79;27.35;102049.59;16216248;19;130574;-57
2022/12/18 16:08:03;;;;;;;29.42;5.57;;;;;;;18.81;27.63;102033.59;16213754;19;129012;-56
2022/12/18 16:13:24;;;;;;;27.92;5.95;;;;;;;18.86;27.81;102033.78;16213156;19;128241;-58
2022/12/18 16:18:46;;;;;;;29.58;6.10;;;;;;;18.88;27.88;102032.50;16212654;19;128970;-57
2022/12/18 16:24:29;;;;;;;22.05;4.75;;;;;;;18.95;27.68;102028.81;16210850;19;129172;-58
2022/12/18 16:29:51;;;;;;;20.98;4.75;;;;;;;18.94;27.76;102025.22;16213764;19;128349;-57
2022/12/18 16:35:15;;;;;;;30.50;5.53;;;;;;;18.97;28.01;102016.44;16214619;19;129618;-55
2022/12/18 16:41:30;;;;;;;13.63;5.00;;;;;;;18.99;28.02;101999.59;16221530;19;128407;-57
2022/12/18 16:46:19;;;;;;;18.08;4.32;;;;;;;19.00;28.00;102012.38;16212488;19;128462;-57
2022/12/18 16:51:42;;;;;;;26.10;5.55;;;;;;;19.02;28.13;102013.00;16210084;19;128872;-57
2022/12/18 16:57:04;;;;;;;40.00;5.30;;;;;;;19.03;27.85;102009.16;16193775;19;129229;-53
2022/12/18 17:02:26;;;;;;;28.08;5.18;;;;;;;19.03;27.86;101998.91;16129261;19;128935;-53
2022/12/18 17:07:48;;;;;;;22.00;5.40;;;;;;;19.04;28.06;102000.63;16131191;19;130292;-52
2022/12/18 17:13:10;;;;;;;17.02;5.35;;;;;;;19.01;27.87;102006.59;16135010;19;129562;-55
2022/12/18 17:18:32;;;;;;;45.75;5.32;;;;;;;18.95;28.54;102004.75;16129229;19;129208;-54
2022/12/18 17:23:54;;;;;;;43.35;5.72;;;;;;;18.88;28.40;101992.81;16123192;19;130893;-53
2022/12/18 17:29:19;;;;;;;33.13;5.00;;;;;;;18.80;28.51;101979.22;16123846;19;129916;-52
2022/12/18 17:34:43;;;;;;;23.15;4.90;;;;;;;18.69;28.46;101975.22;16122092;19;129428;-50
2022/12/18 17:40:05;;;;;;;14.20;3.88;;;;;;;18.64;28.77;101984.19;16120952;19;129815;-54
2022/12/18 17:45:27;;;;;;;18.23;4.45;;;;;;;18.77;28.61;101978.59;16120462;19;130079;-53
2022/12/18 17:50:49;;;;;;;13.45;3.42;;;;;;;19.23;28.48;101981.31;16121810;19;129552;-52
2022/12/18 17:56:16;;;;;;;15.02;3.67;;;;;;;19.83;28.25;101988.28;16119670;19;129453;-56
2022/12/18 18:01:37;;;;;;;18.98;6.20;;;;;;;20.34;28.10;101988.19;16120049;19;129844;-52
2022/12/18 18:07:05;;;;;;;28.10;10.52;;;;;;;20.72;27.45;101984.28;16120734;19;129544;-54
2022/12/18 18:18:07;;;;;;;36.75;19.45;;;;;;;21.34;27.03;101985.97;16118080;19;129911;-55
2022/12/18 18:23:32;;;;;;;68.68;36.72;;;;;;;21.47;26.52;101984.91;15971588;19;2956221;-52
2022/12/18 18:28:54;;;;;;;68.88;38.38;;;;;;;21.59;26.72;101982.16;16124710;19;133710;-58
2022/12/18 18:34:24;;;;;;;61.72;36.00;;;;;;;21.68;26.69;101991.84;16123176;19;129665;-57
2022/12/18 18:39:46;;;;;;;52.47;33.38;;;;;;;21.64;26.47;101996.22;16124177;19;129352;-58
2022/12/18 18:45:08;;;;;;;50.05;31.83;;;;;;;21.47;26.56;101996.88;16124264;19;129935;-59
2022/12/18 18:50:30;;;;;;;44.78;28.60;;;;;;;21.30;26.91;102001.44;16127546;19;129702;-58
2022/12/18 18:55:52;;;;;;;54.42;24.90;;;;;;;21.13;27.57;101985.44;16126135;19;129418;-60
2022/12/18 19:01:34;;;;;;;49.63;21.88;;;;;;;20.95;27.71;101980.78;16122464;19;131239;-59
2022/12/18 19:06:56;;;;;;;42.78;19.30;;;;;;;20.74;27.81;101982.13;16123449;19;129652;-55
2022/12/18 19:18:01;;;;;;;31.23;17.77;;;;;;;20.38;28.66;102000.53;16122610;19;129176;-52
2022/12/18 19:23:23;;;;;;;35.45;14.73;;;;;;;20.23;28.71;101992.59;16137794;19;129457;-53
2022/12/18 19:28:46;;;;;;;36.25;13.70;;;;;;;20.06;29.33;101993.19;16135903;19;131009;-52
2022/12/18 19:34:10;;;;;;;29.02;13.98;;;;;;;19.91;28.98;102001.88;16137579;19;130408;-57
2022/12/18 19:39:32;;;;;;;24.55;12.73;;;;;;;19.79;29.51;102001.75;16138222;19;130383;-52
2022/12/18 19:44:54;;;;;;;21.42;11.40;;;;;;;19.63;29.54;102000.44;16138125;19;131625;-51
2022/12/18 19:50:16;;;;;;;20.95;10.60;;;;;;;19.55;29.40;102003.50;16134107;19;130091;-56
2022/12/18 19:55:41;;;;;;;18.98;9.10;;;;;;;19.50;29.67;102006.09;16136378;19;129770;-54
2022/12/18 20:01:05;;;;;;;16.80;8.70;;;;;;;19.57;29.45;101992.97;16134418;19;129856;-55
2022/12/18 20:06:50;;;;;;;18.43;7.53;;;;;;;19.99;29.09;101993.28;16133967;19;129801;-54
2022/12/18 20:12:12;;;;;;;13.93;6.35;;;;;;;20.48;28.77;101977.78;16136606;19;129819;-53
2022/12/18 20:17:33;;;;;;;10.18;6.32;;;;;;;20.78;28.79;101972.25;16131894;19;132044;-51
2022/12/18 20:22:55;;;;;;;9.52;5.30;;;;;;;20.96;28.72;101967.72;16134363;19;129667;-52
2022/12/18 20:28:17;;;;;;;8.75;4.22;;;;;;;20.98;28.67;101948.84;16133827;19;129513;-53
2022/12/18 20:33:40;;;;;;;13.48;4.03;;;;;;;21.03;28.59;101949.00;16132000;19;129343;-54
2022/12/18 20:39:04;;;;;;;12.02;5.20;;;;;;;21.08;28.61;101946.34;16129129;19;129451;-52
2022/12/18 20:44:27;;;;;;;7.78;4.00;;;;;;;21.15;28.64;101947.09;16128385;19;130547;-54
2022/12/18 20:49:48;;;;;;;10.23;3.30;;;;;;;21.19;28.05;101945.50;16130841;19;129965;-53
2022/12/18 20:55:10;;;;;;;14.93;3.97;;;;;;;21.16;28.61;101946.00;16125475;19;129724;-57
2022/12/18 21:00:32;;;;;;;18.05;4.15;;;;;;;21.15;28.65;101943.44;16129894;19;130325;-54
2022/12/18 21:05:53;;;;;;;24.05;4.32;;;;;;;21.17;28.94;101921.81;16128384;19;134192;-53
2022/12/18 21:17:01;;;;;;;27.48;4.57;;;;;;;21.08;29.46;101899.03;16129016;19;134042;-57
2022/12/18 21:22:24;;;;;;;28.88;4.32;;;;;;;20.92;29.41;101886.69;16131834;19;129674;-54
2022/12/18 21:27:45;;;;;;;32.70;4.82;;;;;;;20.75;29.57;101879.00;16129781;19;129325;-54
2022/12/18 21:33:07;;;;;;;28.58;5.75;;;;;;;20.59;29.74;101880.50;16125438;19;130009;-52
2022/12/18 21:38:29;;;;;;;22.08;4.90;;;;;;;20.49;29.76;101880.25;16127119;19;129771;-61
2022/12/18 21:44:06;;;;;;;26.77;4.90;;;;;;;20.37;29.97;101866.28;16129970;19;128993;-50
2022/12/18 21:49:28;;;;;;;16.58;4.32;;;;;;;20.26;30.10;101847.63;16127908;19;130171;-51
2022/12/18 21:54:50;;;;;;;15.43;4.25;;;;;;;20.13;29.98;101837.56;16128525;19;129930;-56
2022/12/18 22:00:12;;;;;;;20.33;4.05;;;;;;;20.03;30.21;101831.72;16123184;19;129638;-54
2022/12/18 22:05:40;;;;;;;41.70;6.10;;;;;;;19.88;30.70;101818.22;16125592;19;130142;-53
2022/12/18 22:11:01;;;;;;;28.88;4.47;;;;;;;19.76;30.91;101815.34;16127043;19;129562;-49
2022/12/18 22:16:23;;;;;;;22.48;4.30;;;;;;;19.60;31.13;101801.00;16127437;19;130273;-51
2022/12/18 22:21:47;;;;;;;25.77;4.38;;;;;;;19.46;31.17;101800.31;16124624;19;129491;-50
2022/12/18 22:27:09;;;;;;;17.67;4.10;;;;;;;19.34;31.25;101794.69;16123062;19;130376;-53
2022/12/18 22:32:34;;;;;;;17.23;3.30;;;;;;;19.23;31.57;101773.25;16123908;19;129713;-50
2022/12/18 22:38:00;;;;;;;9.95;3.25;;;;;;;19.13;31.43;101775.69;16123557;19;129372;-48
2022/12/18 22:43:21;;;;;;;6.72;2.88;;;;;;;19.03;31.29;101778.97;16123775;19;129371;-52
2022/12/18 22:48:43;;;;;;;12.70;3.15;;;;;;;18.96;31.33;101775.41;16126012;19;129829;-51
2022/12/18 22:54:05;;;;;;;8.13;2.90;;;;;;;18.89;31.42;101775.47;16125822;19;130048;-52
2022/12/18 22:59:27;;;;;;;7.32;3.03;;;;;;;18.81;31.78;101767.47;16138867;19;129925;-49
2022/12/18 23:04:49;;;;;;;9.13;2.90;;;;;;;18.75;31.88;101745.09;16144949;19;129058;-52
2022/12/18 23:10:10;;;;;;;7.15;3.00;;;;;;;18.68;31.87;101732.38;16138019;19;130271;-52
2022/12/18 23:15:32;;;;;;;7.53;2.95;;;;;;;18.62;31.58;101720.28;16137297;19;130584;-52
2022/12/18 23:20:54;;;;;;;5.00;2.80;;;;;;;18.56;32.10;101721.19;16135529;19;130033;-54
2022/12/18 23:26:19;;;;;;;5.65;2.60;;;;;;;18.52;31.66;101717.19;16139225;19;129496;-51
2022/12/18 23:31:41;;;;;;;5.22;2.83;;;;;;;18.46;31.90;101730.84;16137862;19;129670;-52
2022/12/18 23:37:03;;;;;;;7.45;2.97;;;;;;;18.44;31.71;101727.47;16134389;19;129613;-49
2022/12/18 23:42:25;;;;;;;11.35;2.95;;;;;;;18.40;31.79;101698.53;16137745;19;128972;-52
2022/12/18 23:47:48;;;;;;;4.95;2.72;;;;;;;18.36;31.88;101665.94;16138155;19;128984;-52
2022/12/18 23:53:11;;;;;;;4.82;2.63;;;;;;;18.31;31.82;101667.44;16135629;19;129364;-51
2022/12/18 23:58:35;;;;;;;6.45;2.88;;;;;;;18.25;32.32;101659.19;16135748;19;129509;-50
